createdAt,value
2022-11-27T01:41:48.881Z,102483.19
2022-11-27T01:44:32.250Z,102472.53
2022-11-27T01:47:29.197Z,102470.44
2022-11-27T01:50:23.887Z,102467.84
2022-11-27T01:53:19.355Z,102447.31
2022-11-27T03:04:37.616Z,102450.63
2022-11-27T03:07:53.214Z,102444.00
2022-11-27T03:11:02.689Z,102434.22
2022-11-27T03:13:55.555Z,102429.28
2022-11-27T03:16:57.186Z,102428.25
2022-11-27T03:20:17.297Z,102425.06
2022-11-27T03:23:00.776Z,102435.25
2022-11-27T03:25:44.250Z,102433.72
2022-11-27T03:28:29.845Z,102424.69
2022-11-27T03:31:14.523Z,102424.03
2022-11-27T03:33:58.677Z,102431.28
2022-11-27T03:36:42.547Z,102424.50
2022-11-27T03:39:27.676Z,102426.75
2022-11-27T03:42:36.455Z,102432.47
2022-11-27T03:46:08.961Z,102420.16
2022-11-27T03:49:39.811Z,102420.84
2022-11-27T03:53:00.930Z,102423.19
2022-11-27T03:56:34.201Z,102421.81
2022-11-27T03:59:32.314Z,102416.94
2022-11-27T04:02:27.668Z,102418.25
2022-11-27T04:05:12.538Z,102413.44
2022-11-27T04:07:56.135Z,102412.84
2022-11-27T04:10:39.587Z,102422.88
2022-11-27T04:13:23.010Z,102419.97
2022-11-27T04:16:07.496Z,102418.03
2022-11-27T04:18:50.920Z,102423.84
2022-11-27T04:21:34.346Z,102420.56
2022-11-27T04:24:17.864Z,102424.00
2022-11-27T04:27:01.324Z,102416.56
2022-11-27T04:29:44.851Z,102420.81
2022-11-27T04:32:28.365Z,102426.00
2022-11-27T04:35:11.840Z,102426.38
2022-11-27T04:37:58.179Z,102422.31
2022-11-27T04:40:41.702Z,102428.53
2022-11-27T04:43:25.223Z,102428.09
2022-11-27T04:46:08.649Z,102423.75
2022-11-27T04:48:52.353Z,102423.94
2022-11-27T04:51:35.780Z,102433.53
2022-11-27T04:54:19.218Z,102438.53
2022-11-27T04:57:03.132Z,102426.97
2022-11-27T04:59:46.666Z,102442.31
2022-11-27T05:02:30.409Z,102433.06
2022-11-27T05:05:13.979Z,102431.91
2022-11-27T05:07:57.514Z,102428.53
2022-11-27T05:10:41.009Z,102424.84
2022-11-27T05:13:24.461Z,102427.41
2022-11-27T05:16:08.105Z,102420.38
2022-11-27T05:18:51.577Z,102419.50
2022-11-27T05:21:35.104Z,102419.50
2022-11-27T05:24:21.205Z,102424.38
2022-11-27T05:27:04.733Z,102414.84
2022-11-27T05:29:48.140Z,102423.16
2022-11-27T05:32:31.579Z,102420.06
2022-11-27T05:35:15.093Z,102429.22
2022-11-27T05:37:58.509Z,102435.09
2022-11-27T05:40:41.909Z,102421.31
2022-11-27T05:43:25.329Z,102422.91
2022-11-27T05:46:13.849Z,102418.31
2022-11-27T05:48:57.467Z,102430.03
2022-11-27T05:51:42.536Z,102428.88
2022-11-27T05:54:28.780Z,102421.81
2022-11-27T05:57:12.287Z,102417.16
2022-11-27T05:59:55.747Z,102413.38
2022-11-27T06:02:39.312Z,102419.91
2022-11-27T06:05:23.838Z,102415.63
2022-11-27T06:08:07.835Z,102404.44
2022-11-27T06:10:51.331Z,102398.53
2022-11-27T06:13:35.254Z,102403.81
2022-11-27T06:16:23.309Z,102397.97
2022-11-27T06:19:08.063Z,102388.06
2022-11-27T06:21:51.548Z,102380.63
2022-11-27T06:24:34.947Z,102385.13
2022-11-27T06:27:18.363Z,102383.53
2022-11-27T06:30:05.081Z,102378.19
2022-11-27T06:32:48.584Z,102383.56
2022-11-27T06:35:32.088Z,102380.34
2022-11-27T06:38:15.516Z,102388.25
2022-11-27T06:41:09.309Z,102385.75
2022-11-27T06:43:53.516Z,102388.06
2022-11-27T06:46:37.527Z,102385.19
2022-11-27T06:49:21.208Z,102386.25
2022-11-27T06:52:05.294Z,102381.97
2022-11-27T06:54:48.718Z,102383.56
2022-11-27T06:57:32.162Z,102388.81
2022-11-27T07:00:15.957Z,102393.88
2022-11-27T07:02:59.418Z,102396.44
2022-11-27T07:05:42.805Z,102398.84
2022-11-27T07:08:26.343Z,102397.03
2022-11-27T07:11:22.058Z,102397.84
2022-11-27T07:14:06.943Z,102398.03
2022-11-27T07:16:50.443Z,102392.16
2022-11-27T07:19:34.071Z,102387.22
2022-11-27T07:22:17.497Z,102380.19
2022-11-27T07:25:01.670Z,102371.72
2022-11-27T07:27:45.384Z,102373.16
2022-11-27T07:30:28.853Z,102372.44
2022-11-27T07:33:12.329Z,102372.59
2022-11-27T07:36:09.103Z,102380.69
2022-11-27T07:38:53.483Z,102376.09
2022-11-27T07:41:36.903Z,102377.38
2022-11-27T07:44:20.425Z,102367.06
2022-11-27T07:47:03.886Z,102357.53
2022-11-27T07:49:50.239Z,102363.44
2022-11-27T07:52:41.090Z,102364.97
2022-11-27T07:55:25.581Z,102360.56
2022-11-27T07:58:09.710Z,102352.56
2022-11-27T08:00:53.240Z,102352.13
2022-11-27T08:03:37.308Z,102344.03
2022-11-27T08:06:27.246Z,102346.91
2022-11-27T08:09:10.679Z,102347.72
2022-11-27T08:11:54.088Z,102349.03
2022-11-27T08:14:37.901Z,102346.91
2022-11-27T08:17:21.695Z,102348.66
2022-11-27T08:20:07.104Z,102349.53
2022-11-27T08:22:51.116Z,102337.72
2022-11-27T08:25:34.647Z,102340.59
2022-11-27T08:28:18.054Z,102339.22
2022-11-27T08:31:04.356Z,102337.25
2022-11-27T08:33:48.324Z,102336.84
2022-11-27T08:36:31.824Z,102349.19
2022-11-27T08:39:15.245Z,102345.69
2022-11-27T08:41:58.753Z,102350.34
2022-11-27T08:44:42.685Z,102344.25
2022-11-27T08:47:26.380Z,102349.47
2022-11-27T08:50:10.258Z,102345.84
2022-11-27T08:52:53.704Z,102351.88
2022-11-27T08:55:37.147Z,102354.78
2022-11-27T08:58:20.588Z,102355.09
2022-11-27T09:01:14.659Z,102359.25
2022-11-27T09:03:59.402Z,102356.00
2022-11-27T09:41:28.161Z,102321.59
2022-11-27T09:44:26.345Z,102327.09
2022-11-27T09:47:41.394Z,102321.59
2022-11-27T09:50:31.479Z,102315.84
2022-11-27T09:53:41.789Z,102306.00
2022-11-27T09:56:25.476Z,102304.28
2022-11-27T09:59:18.920Z,102307.94
2022-11-27T10:02:03.651Z,102296.59
2022-11-27T10:05:12.474Z,102304.19
2022-11-27T10:08:22.899Z,102306.09
2022-11-27T10:11:51.127Z,102296.16
2022-11-27T10:15:27.982Z,102294.31
2022-11-27T10:18:40.366Z,102295.41
2022-11-27T10:21:58.397Z,102293.50
2022-11-27T10:24:58.860Z,102293.56
2022-11-27T10:28:27.392Z,102286.53
2022-11-27T10:31:22.502Z,102289.25
2022-11-27T10:34:41.888Z,102294.09
2022-11-27T10:37:36.503Z,102286.53
2022-11-27T10:40:34.356Z,102282.47
2022-11-27T10:43:24.309Z,102271.34
2022-11-27T10:46:30.158Z,102274.91
2022-11-27T10:49:13.783Z,102281.94
2022-11-27T10:51:57.243Z,102277.63
2022-11-27T10:54:42.858Z,102265.13
2022-11-27T10:57:58.685Z,102260.78
2022-11-27T11:00:42.163Z,102265.91
2022-11-27T11:03:25.612Z,102262.94
2022-11-27T11:06:23.577Z,102257.78
2022-11-27T11:09:19.101Z,102263.75
2022-11-27T11:12:21.243Z,102255.59
2022-11-27T11:15:11.966Z,102253.09
2022-11-27T11:17:55.509Z,102248.13
2022-11-27T11:20:38.951Z,102238.63
2022-11-27T11:23:40.948Z,102240.00
2022-11-27T11:26:49.148Z,102251.44
2022-11-27T11:29:46.389Z,102256.94
2022-11-27T11:32:40.100Z,102258.84
2022-11-27T11:35:34.915Z,102254.75
2022-11-27T11:38:30.614Z,102249.03
2022-11-27T11:41:17.989Z,102249.63
2022-11-27T11:44:02.988Z,102243.09
2022-11-27T11:46:54.922Z,102235.75
2022-11-27T11:49:38.431Z,102240.03
2022-11-27T11:52:33.738Z,102238.94
2022-11-27T11:55:34.122Z,102231.94
2022-11-27T11:59:06.979Z,102230.06
2022-11-27T12:05:46.212Z,102231.22
2022-11-27T14:46:58.966Z,102056.69
2022-11-27T14:50:12.303Z,102059.47
2022-11-27T14:56:20.044Z,102053.03
2022-11-27T14:59:07.834Z,102053.31
2022-11-27T16:02:30.145Z,101994.19
2022-11-27T16:09:01.588Z,101984.66
2022-11-27T16:16:15.330Z,101985.13
2022-11-27T16:19:05.506Z,101986.38
2022-11-27T16:21:55.514Z,101983.44
2022-11-27T16:24:40.110Z,101980.56
2022-11-27T16:27:30.322Z,101977.38
2022-11-27T16:30:15.694Z,101974.19
2022-11-27T16:33:06.057Z,101967.47
2022-11-27T16:36:13.552Z,101966.34
2022-11-27T16:39:01.740Z,101969.91
2022-11-27T16:41:51.526Z,101963.72
2022-11-27T16:45:05.787Z,101966.41
2022-11-27T16:47:51.767Z,101950.38
2022-11-27T16:50:40.563Z,101949.56
2022-11-27T16:53:24.863Z,101946.06
2022-11-27T16:56:12.393Z,101946.06
2022-11-27T16:59:02.617Z,101937.63
2022-11-27T17:01:47.786Z,101942.72
2022-11-27T17:04:31.535Z,101940.34
2022-11-27T17:07:18.366Z,101941.41
2022-11-27T17:10:05.729Z,101942.44
2022-11-27T17:12:50.044Z,101942.72
2022-11-27T17:15:40.386Z,101941.13
2022-11-27T17:18:28.155Z,101937.66
2022-11-27T17:21:19.020Z,101933.88
2022-11-27T17:24:11.562Z,101930.97
2022-11-27T17:26:59.587Z,101934.69
2022-11-27T17:29:46.759Z,101928.66
2022-11-27T17:32:30.916Z,101928.22
2022-11-27T17:35:15.681Z,101925.53
2022-11-27T17:37:59.299Z,101909.47
2022-11-27T17:40:42.903Z,101913.31
2022-11-27T17:43:28.080Z,101902.28
2022-11-27T17:46:23.376Z,101890.31
2022-11-27T17:49:09.749Z,101885.53
2022-11-27T17:51:53.953Z,101888.94
2022-11-27T17:54:41.038Z,101883.47
2022-11-27T17:57:24.835Z,101886.78
2022-11-27T18:00:10.081Z,101881.03
2022-11-27T18:02:57.649Z,101885.66
2022-11-27T18:05:41.602Z,101876.84
2022-11-27T18:08:25.436Z,101873.97
2022-11-27T18:11:14.569Z,101867.72
2022-11-27T18:13:58.301Z,101864.25
2022-11-27T18:16:42.203Z,101860.00
2022-11-27T18:19:25.839Z,101846.72
2022-11-27T18:22:11.288Z,101837.22
2022-11-27T18:24:58.789Z,101843.41
2022-11-27T18:27:42.827Z,101836.69
2022-11-27T18:30:26.517Z,101825.59
2022-11-27T18:33:10.245Z,101831.28
2022-11-27T18:35:53.877Z,101833.72
2022-11-27T18:38:41.051Z,101831.81
2022-11-27T18:41:28.239Z,101826.41
2022-11-27T18:44:11.840Z,101823.09
2022-11-27T18:46:55.393Z,101828.28
2022-11-27T18:49:41.064Z,101834.59
2022-11-27T18:52:25.369Z,101835.38
2022-11-27T18:55:24.970Z,101842.97
2022-11-27T18:58:12.804Z,101846.19
2022-11-27T19:00:57.634Z,101838.53
2022-11-27T19:03:43.066Z,101838.28
2022-11-27T19:06:30.306Z,101847.22
2022-11-27T19:09:14.962Z,101856.22
2022-11-27T19:12:00.278Z,101848.22
2022-11-27T19:14:44.288Z,101845.00
2022-11-27T19:17:32.261Z,101847.44
2022-11-27T19:20:16.806Z,101841.41
2022-11-27T19:23:01.268Z,101833.13
2022-11-27T19:25:51.352Z,101835.19
2022-11-27T19:28:37.439Z,101836.75
2022-11-27T19:31:22.802Z,101820.66
2022-11-27T19:34:08.128Z,101829.44
2022-11-27T19:36:51.812Z,101828.69
2022-11-27T19:39:35.576Z,101815.84
2022-11-27T19:42:21.772Z,101811.56
2022-11-27T19:45:06.142Z,101808.31
2022-11-27T19:47:51.015Z,101801.16
2022-11-27T19:50:34.594Z,101802.84
2022-11-27T19:53:19.319Z,101805.16
2022-11-27T19:56:07.393Z,101797.94
2022-11-27T19:59:14.365Z,101798.69
2022-11-27T20:01:59.244Z,101799.09
2022-11-27T20:04:55.471Z,101799.53
2022-11-27T20:07:39.256Z,101799.94
2022-11-27T20:10:23.065Z,101805.28
2022-11-27T20:13:06.918Z,101805.41
2022-11-27T20:15:53.911Z,101797.78
2022-11-27T20:18:38.427Z,101791.25
2022-11-27T20:21:25.404Z,101795.75
2022-11-27T20:24:09.449Z,101795.63
2022-11-27T20:26:53.413Z,101792.88
2022-11-27T20:29:40.163Z,101795.69
2022-11-27T20:32:24.930Z,101800.50
2022-11-27T20:35:12.778Z,101793.66
2022-11-27T20:38:09.332Z,101794.84
2022-11-27T20:40:54.482Z,101789.44
2022-11-27T20:43:43.084Z,101798.91
2022-11-27T20:46:28.155Z,101789.75
2022-11-27T20:49:11.870Z,101802.06
2022-11-27T20:51:56.355Z,101797.41
2022-11-27T20:54:40.103Z,101797.69
2022-11-27T20:57:24.611Z,101794.69
2022-11-27T21:00:11.927Z,101799.22
2022-11-27T21:02:57.333Z,101787.38
2022-11-27T21:05:43.567Z,101778.16
2022-11-27T21:08:27.555Z,101783.22
2022-11-27T21:11:25.074Z,101778.50
2022-11-27T21:14:18.178Z,101760.88
2022-11-27T21:17:05.025Z,101758.19
2022-11-27T21:19:57.208Z,101741.56
2022-11-27T21:22:44.255Z,101739.56
2022-11-27T21:25:28.114Z,101736.22
2022-11-27T21:28:11.928Z,101729.00
2022-11-27T21:31:11.729Z,101732.31
2022-11-27T21:33:59.155Z,101725.50
2022-11-27T21:36:43.383Z,101723.41
2022-11-27T21:39:27.653Z,101716.28
2022-11-27T21:42:20.485Z,101715.41
2022-11-27T21:45:04.688Z,101716.53
2022-11-27T21:47:49.074Z,101713.56
2022-11-27T21:50:32.754Z,101716.28
2022-11-27T21:53:19.600Z,101707.59
2022-11-27T21:56:19.703Z,101699.19
2022-11-27T21:59:11.085Z,101700.59
2022-11-27T22:01:57.402Z,101700.59
2022-11-27T22:04:41.621Z,101706.53
2022-11-27T22:07:25.706Z,101701.72
2022-11-27T22:10:10.622Z,101706.34
2022-11-27T22:12:54.704Z,101709.91
2022-11-27T22:15:47.541Z,101711.63
2022-11-27T22:18:37.949Z,101714.00
2022-11-27T22:33:22.211Z,101706.25
2022-11-27T22:36:18.992Z,101699.72
2022-11-27T22:39:07.184Z,101701.03
2022-11-27T22:41:52.299Z,101700.09
2022-11-27T22:44:36.398Z,101702.69
2022-11-27T22:47:20.243Z,101706.50
2022-11-27T22:50:04.960Z,101701.09
2022-11-27T22:52:48.753Z,101695.16
2022-11-27T22:55:35.748Z,101689.97
2022-11-27T22:58:20.210Z,101688.97
2022-11-27T23:01:04.444Z,101690.31
2022-11-27T23:04:04.151Z,101683.00
2022-11-27T23:06:48.643Z,101680.47
2022-11-27T23:09:33.205Z,101688.19
2022-11-27T23:12:16.649Z,101687.22
2022-11-27T23:15:00.111Z,101678.00
2022-11-27T23:17:43.508Z,101671.06
2022-11-27T23:20:26.953Z,101671.00
2022-11-27T23:23:12.705Z,101667.31
2022-11-27T23:25:56.133Z,101664.59
2022-11-27T23:28:39.622Z,101657.97
2022-11-27T23:31:30.888Z,101657.34
2022-11-27T23:34:16.108Z,101672.97
2022-11-27T23:36:59.662Z,101663.63
2022-11-27T23:39:43.114Z,101664.25
2022-11-27T23:42:27.003Z,101661.38
2022-11-27T23:45:11.545Z,101655.97
2022-11-27T23:47:55.051Z,101659.09
2022-11-27T23:50:42.712Z,101650.53
2022-11-27T23:53:28.338Z,101645.13
2022-11-27T23:56:19.637Z,101651.88
2022-11-27T23:59:04.257Z,101650.47
